KAWO2: Kaw Lake

Data processed at Sun Aug 09 2020 22:31


All information presented herein is the property of the government of the United States of America and may be revised or deleted at any time without prior notice.
Dissemination of this information without the expressed written consent of the Public Affairs Office, Tulsa District U.S. Army Corps of Engineers is strictly prohibited.
These data are gathered electronically and, as presented, have not undergone any form of quality control. These data are not guaranteed to be valid or correct.
Go to home page.
Go to station list.
Go to home page.

Upstream stations:

Downstream station:
Previous Day
Next Day
Current Day
    
SHEF ID:       KAWO2     Kaw Lake
STATION TYPE:  RESERVOIR
Flood Pool:  Bottom =  1010.00, Top =  1044.50

               PRECIP ELEVATION   STORAGE   TW-ELEV    INFLOW   RELEASE     STAGE  RIV-FLOW  AIR-TEMP  WIND-DIRWIND-SPEED REL-HUMID SOLAR-RAD   VOLTAGE  BAT-LOAD
                   in        ft     ac-ft        ft       cfs       cfs        ft       cfs         F       deg       mph         %      W/m2      volt      volt
              Ccp-Rev   Ccp-Rev   Ccp-Rev   Ccp-Rev  Rev-Regi  Rev-Regi   Ccp-Rev   Ccp-Rev   Ccp-Rev   Ccp-Rev   Ccp-Rev   Ccp-Rev   Ccp-Rev   Ccp-Rev   Ccp-Rev
(US/Central)
08/09 00:00      0.00   1010.79    375187      ----      1764        31      2.48        31     83.64    197.50     13.60     58.53      0.00     12.80     12.51
08/09 01:00      0.00   1010.79    375187      ----      2060        31      2.48        31     82.49    195.60     13.20     58.75      0.00     12.78     12.50
08/09 02:00      0.00   1010.80    375347      ----       602        31      2.48        31     79.74    189.10     10.50     63.55      0.00     12.77     12.48
08/09 03:00      0.00   1010.81    375507      ----      1190        31      2.48        31     78.17    190.40     11.50     65.57      0.00     12.76     12.49
08/09 04:00      0.00   1010.81    375507      ----      1185        31      2.48        31     77.41    188.50     11.50     67.38      0.00     12.74     12.47
08/09 05:00      0.00   1010.83    375828      ----      1517        31      2.48        31     76.08    188.30      9.10     72.42      0.00     12.72     12.46
08/09 06:00      0.00   1010.82    375668      ----      1225        31      2.48        31     77.23    202.80      9.60     69.89      0.00     12.70     12.44
08/09 07:00      0.00   1010.84    375989      ----      1226        31      2.48        31     77.00    198.70     11.30     70.94      0.00     12.69     12.42
08/09 08:00      0.00   1010.84    375989      ----       643        31      2.48        31     78.39    203.30     11.00     69.51    107.20     13.38     12.42
08/09 09:00      0.00   1010.83    375828      ----       686        31      2.48        31     80.49    209.10     10.20     67.34    244.20     13.55     13.08
08/09 10:00      0.00   1010.84    375989      ----       101        31      2.48        31     83.37    209.20     11.20     64.02    453.10     13.59     13.05
08/09 11:00      0.00   1010.85    376149      ----       146        31      2.51        31     87.01    220.40     11.80     57.32    626.10     13.54     12.86
08/09 12:00      0.00   1010.84    375989      ----       190       491      3.32       951     90.88    215.10     12.60     50.66    777.50     13.93     12.88
08/09 13:00      0.00   1010.86    376310      ----       476      1423      3.91      1896     92.73    217.10     12.60     48.77    849.30     14.02     12.89
08/09 14:00      0.00   1010.82    375668      ----       433      3121      5.17      4346     94.48    207.10     12.70     46.97    860.60     14.12     12.85
08/09 15:00      0.00   1010.80    375347      ----       390      5639      6.08      6931     95.05    196.50     13.70     46.51    805.80     13.68     12.73
08/09 16:00      0.00   1010.76    374705      ----      1022      7012      6.12      7092     95.68    202.00     14.40     45.28    594.10     14.21     12.70
08/09 17:00      0.00   1010.72    374063      ----      1455      7112      6.13      7132     95.59    201.80     14.00     46.32     40.60     13.49     12.67
08/09 18:00      0.00   1010.71    373903      ----      2168      6049      5.40      4966     94.12    192.00     16.10     46.79    271.90     14.15     12.68
08/09 19:00      0.00   1010.70    373742      ----      2168      4845      5.31      4724     92.97    190.70     11.70     49.70    246.40     14.16     12.70
08/09 20:00      0.00   1010.71    373903      ----      3172      4111      4.85      3499     89.64    187.70      9.10     55.00     65.10     12.85     12.67
08/09 21:00      0.00   1010.69    373582      ----      1486      2617      3.80      1735     85.69    173.50      8.10     64.11      0.40     12.84     12.57
08/09 22:00      ----      ----      ----      ----      ----      ----      ----      ----      ----      ----      ----      ----      ----      ----      ----
08/09 23:00      ----      ----      ----      ----      ----      ----      ----      ----      ----      ----      ----      ----      ----      ----      ----